Brunswick, NE (68720)

4:13 AM CST on January 22, 2017 (GMT -0600)
south | | Change Station

Elev 1640 ft 42.51 °N, 97.96 °W | Updated 15 seconds ago

Partly Cloudy
Partly Cloudy
26.6 °F
Feels Like 27 °F
N
2.9
Wind Variable Wind from North
Gusts 4.9 mph

Today
High -- | Low -- °F
--% Chance of Precip.
Yesterday
High -- | Low -- °F
Precip. -- in
Pressure 29.64 in
Visibility 3.0 miles
Clouds Overcast 300 ft
Windchill 27 °F
Dew Point 26 °F
Humidity 99%
Rainfall 0.00 in
Snow Depth Not available.
7:53 AM 5:33 PM
Waning Crescent, 27% visible
SPECI KOFK 221006Z AUTO 33012KT 3SM BR OVC003 M02/M03 A2964 RMK AO2 T10221033
Pressure 29.64 in
Visibility 3.0 miles
Clouds Overcast 300 ft
Windchill 27 °F
Dew Point 26 °F
Humidity 99%
Rainfall 0.00 in
Snow Depth Not available.
7:53 AM 5:33 PM
Waning Crescent, 27% visible
SPECI KOFK 221006Z AUTO 33012KT 3SM BR OVC003 M02/M03 A2964 RMK AO2 T10221033

Get Your Daily Forecast Email!

Thanks for signing up!

Be on the lookout for a verification email in your inbox.

You'll start receiving the daily forecast at 8 AM.

×

10-Day Weather Forecast

Almanac

Astronomy

Jan. 22, 2017 Rise Set
Actual Time
Civil Twilight
Nautical Twilight
Astronomical Twilight
Moon
Length of Visible Light
Length of Day
Tomorrow will be .
, % of the Moon is Illuminated

Today's Extremes

State Highs State Lows

Community

WunderPhotos

Upload Photos

1,962,540 photos uploaded!

WunderBlog® & News

Nearby

Air Quality

  Air Quality AQ Index Pollutant
Not available.

Snow Depth

Station Depth Elevation

Earthquake Activity

City Distance Mag. Time & Date
Minimum magnitude displayed is 2.5.

Coastal Water Temperatures

Place Temperature

Stations

Nearby Weather Stations

Station Location Temp. Windchill Dew Point Humidity Wind Precip. Elev Updated Type
                   

Watches & Warnings

There are currently no watches in effect.